Country
Station

 

Weather  for  Mont Joli, Que.  -  Canada    Canada

  
8 °C (46 °F)
    
 
 

Current METAR for Mont Joli, Que. is :

CYYY 191500Z 06010KT 10SM FEW016 BKN037 OVC048 08/06 A3015 RMK SC2SC3SC3 SLP215

 

This is a report for Mont Joli, Que. - Canada.
 
The report was made 40 minutes ago, at 15:00 UTC .
The wind was blowing at a speed of 5.1 meters per second (11.5 miles per hour) from east/northeast (060°).
 
The temperature was 8 °C (46 °F), with a dew-point at 6 °C (43 °F).
The atmospheric pressure was 1021 hPa (30.15 inHg).
The relative humidity was 87.2%.
 
There were a few clouds at a height of 488 meters (1600 feet) and broken clouds at a height of 1128 meters (3700 feet). The sky was overcast from a height of 1463 meter (4800 feet)
 
The overall visibility was 16.1 kilometers (10.0 miles).
 

 
 
 
 

Country :   A   B   C   D   E   F   G   H   I   J   K   L   M   N   O   P   Q   R   S   T   U   V   W   Y   Z

 

Site Info  |  Disclaimer  |  Credits  |  Privacy
Contact us  |  Add to favorites
© 2013-2018 METARs - All rights reserved